sensor_id;sensor_type;location;lat;lon;timestamp;P1;durP1;ratioP1;P2;durP2;ratioP2
2658;SDS011;1339;53.304;10.406;2023-06-10T00:01:37;7.70;;;5.03;;
2658;SDS011;1339;53.304;10.406;2023-06-10T00:04:04;5.97;;;5.37;;
2658;SDS011;1339;53.304;10.406;2023-06-10T00:06:31;8.40;;;5.47;;
2658;SDS011;1339;53.304;10.406;2023-06-10T00:09:01;4.90;;;4.40;;
2658;SDS011;1339;53.304;10.406;2023-06-10T00:11:29;6.20;;;5.60;;
2658;SDS011;1339;53.304;10.406;2023-06-10T00:13:56;8.50;;;4.80;;
2658;SDS011;1339;53.304;10.406;2023-06-10T00:16:24;7.13;;;6.40;;
2658;SDS011;1339;53.304;10.406;2023-06-10T00:18:51;6.47;;;4.63;;
2658;SDS011;1339;53.304;10.406;2023-06-10T00:21:20;9.23;;;6.23;;
2658;SDS011;1339;53.304;10.406;2023-06-10T00:23:49;6.57;;;5.07;;
2658;SDS011;1339;53.304;10.406;2023-06-10T00:26:16;5.63;;;5.13;;
2658;SDS011;1339;53.304;10.406;2023-06-10T00:28:43;6.40;;;5.20;;
2658;SDS011;1339;53.304;10.406;2023-06-10T00:31:11;5.60;;;5.10;;
2658;SDS011;1339;53.304;10.406;2023-06-10T00:33:39;8.37;;;5.10;;
2658;SDS011;1339;53.304;10.406;2023-06-10T00:36:06;10.03;;;5.20;;
2658;SDS011;1339;53.304;10.406;2023-06-10T00:38:33;7.20;;;5.17;;
2658;SDS011;1339;53.304;10.406;2023-06-10T00:41:00;6.20;;;5.60;;
2658;SDS011;1339;53.304;10.406;2023-06-10T00:43:27;6.57;;;5.20;;
2658;SDS011;1339;53.304;10.406;2023-06-10T00:45:54;4.93;;;4.07;;
2658;SDS011;1339;53.304;10.406;2023-06-10T00:48:21;5.90;;;5.30;;
2658;SDS011;1339;53.304;10.406;2023-06-10T00:50:49;8.07;;;5.10;;
2658;SDS011;1339;53.304;10.406;2023-06-10T00:53:16;6.57;;;5.37;;
2658;SDS011;1339;53.304;10.406;2023-06-10T00:55:43;8.40;;;5.57;;
2658;SDS011;1339;53.304;10.406;2023-06-10T00:58:10;6.43;;;4.80;;
2658;SDS011;1339;53.304;10.406;2023-06-10T01:00:37;13.43;;;5.80;;
2658;SDS011;1339;53.304;10.406;2023-06-10T01:03:04;11.90;;;5.20;;
2658;SDS011;1339;53.304;10.406;2023-06-10T01:05:32;5.87;;;4.80;;
2658;SDS011;1339;53.304;10.406;2023-06-10T01:08:02;9.00;;;5.53;;
2658;SDS011;1339;53.304;10.406;2023-06-10T01:10:32;10.23;;;5.20;;
2658;SDS011;1339;53.304;10.406;2023-06-10T01:13:00;7.30;;;6.60;;
2658;SDS011;1339;53.304;10.406;2023-06-10T01:15:28;11.63;;;5.60;;
2658;SDS011;1339;53.304;10.406;2023-06-10T01:17:56;5.73;;;4.67;;
2658;SDS011;1339;53.304;10.406;2023-06-10T01:20:24;5.40;;;4.90;;
2658;SDS011;1339;53.304;10.406;2023-06-10T01:22:53;7.43;;;5.20;;
2658;SDS011;1339;53.304;10.406;2023-06-10T01:25:20;9.53;;;6.33;;
2658;SDS011;1339;53.304;10.406;2023-06-10T01:27:53;5.57;;;4.57;;
2658;SDS011;1339;53.304;10.406;2023-06-10T01:30:20;7.17;;;4.83;;
2658;SDS011;1339;53.304;10.406;2023-06-10T01:32:50;8.50;;;4.57;;
2658;SDS011;1339;53.304;10.406;2023-06-10T01:35:18;5.83;;;4.57;;
2658;SDS011;1339;53.304;10.406;2023-06-10T01:37:46;5.47;;;4.97;;
2658;SDS011;1339;53.304;10.406;2023-06-10T01:40:14;7.10;;;5.00;;
2658;SDS011;1339;53.304;10.406;2023-06-10T01:42:42;7.00;;;4.67;;
2658;SDS011;1339;53.304;10.406;2023-06-10T01:45:09;8.27;;;4.70;;
2658;SDS011;1339;53.304;10.406;2023-06-10T01:47:36;6.63;;;4.83;;
2658;SDS011;1339;53.304;10.406;2023-06-10T01:50:03;5.37;;;3.70;;
2658;SDS011;1339;53.304;10.406;2023-06-10T01:52:30;5.90;;;4.27;;
2658;SDS011;1339;53.304;10.406;2023-06-10T01:54:57;5.53;;;4.60;;
2658;SDS011;1339;53.304;10.406;2023-06-10T01:57:25;7.03;;;4.63;;
2658;SDS011;1339;53.304;10.406;2023-06-10T01:59:52;4.93;;;4.30;;
2658;SDS011;1339;53.304;10.406;2023-06-10T02:02:19;8.23;;;5.30;;
2658;SDS011;1339;53.304;10.406;2023-06-10T02:04:47;7.90;;;5.17;;
2658;SDS011;1339;53.304;10.406;2023-06-10T02:07:17;7.53;;;4.60;;
2658;SDS011;1339;53.304;10.406;2023-06-10T02:09:44;10.73;;;4.47;;
2658;SDS011;1339;53.304;10.406;2023-06-10T02:12:11;5.73;;;3.80;;
2658;SDS011;1339;53.304;10.406;2023-06-10T02:14:39;14.80;;;6.90;;
2658;SDS011;1339;53.304;10.406;2023-06-10T02:17:06;5.40;;;4.27;;
2658;SDS011;1339;53.304;10.406;2023-06-10T02:19:37;5.13;;;4.60;;
2658;SDS011;1339;53.304;10.406;2023-06-10T02:22:07;6.50;;;4.10;;
2658;SDS011;1339;53.304;10.406;2023-06-10T02:27:17;9.83;;;5.37;;
2658;SDS011;1339;53.304;10.406;2023-06-10T02:29:46;7.77;;;4.53;;
2658;SDS011;1339;53.304;10.406;2023-06-10T02:32:13;5.00;;;4.10;;
2658;SDS011;1339;53.304;10.406;2023-06-10T02:34:41;5.83;;;4.50;;
2658;SDS011;1339;53.304;10.406;2023-06-10T02:37:08;4.13;;;3.73;;
2658;SDS011;1339;53.304;10.406;2023-06-10T02:39:35;7.60;;;3.80;;
2658;SDS011;1339;53.304;10.406;2023-06-10T02:42:03;6.23;;;4.30;;
2658;SDS011;1339;53.304;10.406;2023-06-10T02:44:30;6.60;;;4.10;;
2658;SDS011;1339;53.304;10.406;2023-06-10T02:46:58;13.03;;;4.60;;
2658;SDS011;1339;53.304;10.406;2023-06-10T02:49:25;5.93;;;3.60;;
2658;SDS011;1339;53.304;10.406;2023-06-10T02:51:53;6.80;;;3.37;;
2658;SDS011;1339;53.304;10.406;2023-06-10T02:54:21;6.07;;;3.50;;
2658;SDS011;1339;53.304;10.406;2023-06-10T02:56:49;13.67;;;3.60;;
2658;SDS011;1339;53.304;10.406;2023-06-10T02:59:16;4.80;;;3.60;;
2658;SDS011;1339;53.304;10.406;2023-06-10T03:01:43;10.57;;;4.40;;
2658;SDS011;1339;53.304;10.406;2023-06-10T03:04:11;5.37;;;3.90;;
2658;SDS011;1339;53.304;10.406;2023-06-10T03:06:39;5.90;;;3.83;;
2658;SDS011;1339;53.304;10.406;2023-06-10T03:09:07;4.80;;;3.30;;
2658;SDS011;1339;53.304;10.406;2023-06-10T03:11:34;6.20;;;3.67;;
2658;SDS011;1339;53.304;10.406;2023-06-10T03:14:01;5.10;;;3.50;;
2658;SDS011;1339;53.304;10.406;2023-06-10T03:16:28;6.00;;;3.50;;
2658;SDS011;1339;53.304;10.406;2023-06-10T03:18:56;6.03;;;4.23;;
2658;SDS011;1339;53.304;10.406;2023-06-10T03:21:24;6.70;;;3.63;;
2658;SDS011;1339;53.304;10.406;2023-06-10T03:23:51;6.17;;;3.37;;
2658;SDS011;1339;53.304;10.406;2023-06-10T03:26:18;6.80;;;4.30;;
2658;SDS011;1339;53.304;10.406;2023-06-10T03:28:46;7.13;;;3.97;;
2658;SDS011;1339;53.304;10.406;2023-06-10T03:31:13;8.83;;;4.30;;
2658;SDS011;1339;53.304;10.406;2023-06-10T03:33:41;4.90;;;3.97;;
2658;SDS011;1339;53.304;10.406;2023-06-10T03:36:08;8.27;;;3.73;;
2658;SDS011;1339;53.304;10.406;2023-06-10T03:38:37;5.37;;;3.40;;
2658;SDS011;1339;53.304;10.406;2023-06-10T03:41:04;5.83;;;3.47;;
2658;SDS011;1339;53.304;10.406;2023-06-10T03:43:30;7.67;;;3.20;;
2658;SDS011;1339;53.304;10.406;2023-06-10T03:45:57;5.60;;;3.40;;
2658;SDS011;1339;53.304;10.406;2023-06-10T03:48:24;4.23;;;3.67;;
2658;SDS011;1339;53.304;10.406;2023-06-10T03:50:52;6.27;;;3.87;;
2658;SDS011;1339;53.304;10.406;2023-06-10T03:53:19;4.30;;;3.40;;
2658;SDS011;1339;53.304;10.406;2023-06-10T03:55:47;6.10;;;3.67;;
2658;SDS011;1339;53.304;10.406;2023-06-10T03:58:14;5.10;;;4.03;;
2658;SDS011;1339;53.304;10.406;2023-06-10T04:00:43;6.77;;;3.40;;
2658;SDS011;1339;53.304;10.406;2023-06-10T04:03:10;5.33;;;3.03;;
2658;SDS011;1339;53.304;10.406;2023-06-10T04:05:39;8.73;;;3.90;;
2658;SDS011;1339;53.304;10.406;2023-06-10T04:08:07;7.20;;;3.87;;
2658;SDS011;1339;53.304;10.406;2023-06-10T04:10:34;8.87;;;3.73;;
2658;SDS011;1339;53.304;10.406;2023-06-10T04:13:02;5.97;;;3.33;;
2658;SDS011;1339;53.304;10.406;2023-06-10T04:15:29;5.23;;;3.67;;
2658;SDS011;1339;53.304;10.406;2023-06-10T04:17:58;9.23;;;3.73;;
2658;SDS011;1339;53.304;10.406;2023-06-10T04:20:26;6.93;;;3.20;;
2658;SDS011;1339;53.304;10.406;2023-06-10T04:22:53;8.57;;;3.57;;
2658;SDS011;1339;53.304;10.406;2023-06-10T04:25:20;5.80;;;3.07;;
2658;SDS011;1339;53.304;10.406;2023-06-10T04:27:47;6.67;;;3.60;;
2658;SDS011;1339;53.304;10.406;2023-06-10T04:30:16;10.60;;;3.80;;
2658;SDS011;1339;53.304;10.406;2023-06-10T04:32:43;4.83;;;2.90;;
2658;SDS011;1339;53.304;10.406;2023-06-10T04:35:11;9.53;;;3.83;;
2658;SDS011;1339;53.304;10.406;2023-06-10T04:37:39;5.40;;;2.63;;
2658;SDS011;1339;53.304;10.406;2023-06-10T04:40:06;5.10;;;3.03;;
2658;SDS011;1339;53.304;10.406;2023-06-10T04:42:33;4.40;;;3.10;;
2658;SDS011;1339;53.304;10.406;2023-06-10T04:45:00;5.97;;;3.10;;
2658;SDS011;1339;53.304;10.406;2023-06-10T04:47:30;6.77;;;4.00;;
2658;SDS011;1339;53.304;10.406;2023-06-10T04:49:58;5.30;;;3.47;;
2658;SDS011;1339;53.304;10.406;2023-06-10T04:52:24;5.80;;;2.83;;
2658;SDS011;1339;53.304;10.406;2023-06-10T04:54:51;5.03;;;2.90;;
2658;SDS011;1339;53.304;10.406;2023-06-10T04:57:18;6.50;;;2.80;;
2658;SDS011;1339;53.304;10.406;2023-06-10T04:59:46;5.30;;;3.43;;
2658;SDS011;1339;53.304;10.406;2023-06-10T05:02:13;4.90;;;3.10;;
2658;SDS011;1339;53.304;10.406;2023-06-10T05:04:41;8.50;;;3.80;;
2658;SDS011;1339;53.304;10.406;2023-06-10T05:07:08;4.03;;;2.43;;
2658;SDS011;1339;53.304;10.406;2023-06-10T05:09:35;7.13;;;2.57;;
2658;SDS011;1339;53.304;10.406;2023-06-10T05:12:02;4.33;;;3.17;;
2658;SDS011;1339;53.304;10.406;2023-06-10T05:14:29;8.17;;;3.20;;
2658;SDS011;1339;53.304;10.406;2023-06-10T05:16:56;8.03;;;3.30;;
2658;SDS011;1339;53.304;10.406;2023-06-10T05:19:23;5.10;;;3.07;;
2658;SDS011;1339;53.304;10.406;2023-06-10T05:21:52;6.43;;;3.47;;
2658;SDS011;1339;53.304;10.406;2023-06-10T05:24:19;7.63;;;3.67;;
2658;SDS011;1339;53.304;10.406;2023-06-10T05:26:46;4.83;;;2.67;;
2658;SDS011;1339;53.304;10.406;2023-06-10T05:29:13;3.27;;;2.57;;
2658;SDS011;1339;53.304;10.406;2023-06-10T05:31:41;15.97;;;3.10;;
2658;SDS011;1339;53.304;10.406;2023-06-10T16:31:53;5.73;;;3.70;;
2658;SDS011;1339;53.304;10.406;2023-06-10T16:34:20;4.40;;;3.47;;
2658;SDS011;1339;53.304;10.406;2023-06-10T16:36:47;5.50;;;3.87;;
2658;SDS011;1339;53.304;10.406;2023-06-10T16:39:14;6.97;;;3.20;;
2658;SDS011;1339;53.304;10.406;2023-06-10T16:41:41;4.40;;;3.90;;
2658;SDS011;1339;53.304;10.406;2023-06-10T16:44:08;4.90;;;3.00;;
2658;SDS011;1339;53.304;10.406;2023-06-10T16:46:35;5.37;;;3.23;;
2658;SDS011;1339;53.304;10.406;2023-06-10T16:49:03;4.20;;;3.80;;
2658;SDS011;1339;53.304;10.406;2023-06-10T16:51:30;4.83;;;3.83;;
2658;SDS011;1339;53.304;10.406;2023-06-10T16:54:02;6.47;;;4.27;;
2658;SDS011;1339;53.304;10.406;2023-06-10T16:56:29;6.10;;;3.93;;
2658;SDS011;1339;53.304;10.406;2023-06-10T16:58:56;5.00;;;3.77;;
2658;SDS011;1339;53.304;10.406;2023-06-10T17:01:23;6.37;;;3.30;;
2658;SDS011;1339;53.304;10.406;2023-06-10T17:03:50;7.10;;;4.30;;
2658;SDS011;1339;53.304;10.406;2023-06-10T17:06:18;3.97;;;3.50;;
2658;SDS011;1339;53.304;10.406;2023-06-10T17:08:45;9.07;;;3.63;;
2658;SDS011;1339;53.304;10.406;2023-06-10T17:11:12;3.83;;;3.07;;
2658;SDS011;1339;53.304;10.406;2023-06-10T17:13:39;5.63;;;3.20;;
2658;SDS011;1339;53.304;10.406;2023-06-10T17:16:06;6.63;;;3.47;;
2658;SDS011;1339;53.304;10.406;2023-06-10T17:18:33;4.30;;;3.40;;
2658;SDS011;1339;53.304;10.406;2023-06-10T17:21:00;3.23;;;2.93;;
2658;SDS011;1339;53.304;10.406;2023-06-10T17:23:28;4.33;;;3.03;;
2658;SDS011;1339;53.304;10.406;2023-06-10T17:25:55;4.10;;;3.67;;
2658;SDS011;1339;53.304;10.406;2023-06-10T17:28:22;6.53;;;3.90;;
2658;SDS011;1339;53.304;10.406;2023-06-10T17:30:49;5.23;;;3.60;;
2658;SDS011;1339;53.304;10.406;2023-06-10T17:33:16;6.50;;;3.63;;
2658;SDS011;1339;53.304;10.406;2023-06-10T17:35:43;6.43;;;4.10;;
2658;SDS011;1339;53.304;10.406;2023-06-10T17:38:10;4.73;;;4.00;;
2658;SDS011;1339;53.304;10.406;2023-06-10T17:40:39;6.00;;;3.70;;
2658;SDS011;1339;53.304;10.406;2023-06-10T17:43:06;4.97;;;4.47;;
2658;SDS011;1339;53.304;10.406;2023-06-10T17:45:33;5.90;;;4.30;;
2658;SDS011;1339;53.304;10.406;2023-06-10T17:48:00;7.93;;;5.10;;
2658;SDS011;1339;53.304;10.406;2023-06-10T17:50:27;6.43;;;5.10;;
2658;SDS011;1339;53.304;10.406;2023-06-10T17:52:54;6.40;;;4.47;;
2658;SDS011;1339;53.304;10.406;2023-06-10T17:55:21;4.73;;;4.30;;
2658;SDS011;1339;53.304;10.406;2023-06-10T17:57:50;8.23;;;5.50;;
2658;SDS011;1339;53.304;10.406;2023-06-10T18:00:17;5.30;;;4.80;;
2658;SDS011;1339;53.304;10.406;2023-06-10T18:02:44;6.47;;;5.20;;
2658;SDS011;1339;53.304;10.406;2023-06-10T18:05:11;6.27;;;5.00;;
2658;SDS011;1339;53.304;10.406;2023-06-10T18:07:38;5.87;;;5.30;;
2658;SDS011;1339;53.304;10.406;2023-06-10T18:10:06;6.03;;;5.00;;
2658;SDS011;1339;53.304;10.406;2023-06-10T18:12:33;7.10;;;5.23;;
2658;SDS011;1339;53.304;10.406;2023-06-10T18:15:03;5.10;;;4.57;;
2658;SDS011;1339;53.304;10.406;2023-06-10T18:17:30;11.40;;;5.50;;
2658;SDS011;1339;53.304;10.406;2023-06-10T18:19:58;4.97;;;4.47;;
2658;SDS011;1339;53.304;10.406;2023-06-10T18:22:25;6.57;;;4.70;;
2658;SDS011;1339;53.304;10.406;2023-06-10T18:24:52;6.10;;;5.27;;
2658;SDS011;1339;53.304;10.406;2023-06-10T18:27:19;6.47;;;4.70;;
2658;SDS011;1339;53.304;10.406;2023-06-10T18:29:46;13.00;;;5.17;;
2658;SDS011;1339;53.304;10.406;2023-06-10T18:32:14;5.80;;;5.20;;
2658;SDS011;1339;53.304;10.406;2023-06-10T18:34:41;6.07;;;5.47;;
2658;SDS011;1339;53.304;10.406;2023-06-10T18:37:11;6.00;;;5.40;;
2658;SDS011;1339;53.304;10.406;2023-06-10T18:39:38;5.10;;;4.70;;
2658;SDS011;1339;53.304;10.406;2023-06-10T18:42:05;4.90;;;4.53;;
2658;SDS011;1339;53.304;10.406;2023-06-10T18:44:32;7.03;;;5.00;;
2658;SDS011;1339;53.304;10.406;2023-06-10T18:46:59;7.17;;;5.10;;
2658;SDS011;1339;53.304;10.406;2023-06-10T18:49:28;8.37;;;5.90;;
2658;SDS011;1339;53.304;10.406;2023-06-10T18:51:55;5.70;;;4.87;;
2658;SDS011;1339;53.304;10.406;2023-06-10T18:54:22;4.97;;;4.07;;
2658;SDS011;1339;53.304;10.406;2023-06-10T18:56:49;5.27;;;4.77;;
2658;SDS011;1339;53.304;10.406;2023-06-10T18:59:17;11.40;;;5.53;;
2658;SDS011;1339;53.304;10.406;2023-06-10T19:01:43;6.03;;;5.53;;
2658;SDS011;1339;53.304;10.406;2023-06-10T19:04:10;5.90;;;4.83;;
2658;SDS011;1339;53.304;10.406;2023-06-10T19:06:39;5.97;;;5.17;;
2658;SDS011;1339;53.304;10.406;2023-06-10T19:09:06;11.23;;;6.17;;
2658;SDS011;1339;53.304;10.406;2023-06-10T19:11:33;5.20;;;4.40;;
2658;SDS011;1339;53.304;10.406;2023-06-10T19:14:00;6.23;;;4.93;;
2658;SDS011;1339;53.304;10.406;2023-06-10T19:16:27;5.07;;;4.50;;
2658;SDS011;1339;53.304;10.406;2023-06-10T19:18:54;9.43;;;5.23;;
2658;SDS011;1339;53.304;10.406;2023-06-10T19:21:21;5.43;;;4.40;;
2658;SDS011;1339;53.304;10.406;2023-06-10T19:23:49;4.60;;;4.20;;
2658;SDS011;1339;53.304;10.406;2023-06-10T19:26:16;5.40;;;4.27;;
2658;SDS011;1339;53.304;10.406;2023-06-10T19:28:43;4.23;;;3.93;;
2658;SDS011;1339;53.304;10.406;2023-06-10T19:31:10;4.70;;;4.30;;
2658;SDS011;1339;53.304;10.406;2023-06-10T19:33:37;5.07;;;4.60;;
2658;SDS011;1339;53.304;10.406;2023-06-10T19:36:04;5.37;;;4.87;;
2658;SDS011;1339;53.304;10.406;2023-06-10T19:38:31;5.93;;;4.50;;
2658;SDS011;1339;53.304;10.406;2023-06-10T19:40:59;5.50;;;5.00;;
2658;SDS011;1339;53.304;10.406;2023-06-10T19:43:27;6.30;;;5.70;;
2658;SDS011;1339;53.304;10.406;2023-06-10T19:45:54;6.93;;;6.23;;
2658;SDS011;1339;53.304;10.406;2023-06-10T19:48:21;6.20;;;5.70;;
2658;SDS011;1339;53.304;10.406;2023-06-10T19:50:48;6.70;;;6.20;;
2658;SDS011;1339;53.304;10.406;2023-06-10T19:53:15;6.40;;;5.87;;
2658;SDS011;1339;53.304;10.406;2023-06-10T19:55:42;6.03;;;5.63;;
2658;SDS011;1339;53.304;10.406;2023-06-10T19:58:10;6.13;;;5.73;;
2658;SDS011;1339;53.304;10.406;2023-06-10T20:00:37;6.83;;;6.30;;
2658;SDS011;1339;53.304;10.406;2023-06-10T20:03:04;7.30;;;6.50;;
2658;SDS011;1339;53.304;10.406;2023-06-10T20:05:31;7.77;;;7.10;;
2658;SDS011;1339;53.304;10.406;2023-06-10T20:07:59;7.63;;;6.83;;
2658;SDS011;1339;53.304;10.406;2023-06-10T20:10:27;7.17;;;6.33;;
2658;SDS011;1339;53.304;10.406;2023-06-10T20:12:54;6.60;;;6.10;;
2658;SDS011;1339;53.304;10.406;2023-06-10T20:15:22;11.13;;;5.40;;
2658;SDS011;1339;53.304;10.406;2023-06-10T20:17:49;6.33;;;5.53;;
2658;SDS011;1339;53.304;10.406;2023-06-10T20:20:17;4.20;;;3.90;;
2658;SDS011;1339;53.304;10.406;2023-06-10T20:22:44;9.33;;;5.03;;
2658;SDS011;1339;53.304;10.406;2023-06-10T20:25:11;5.23;;;4.47;;
2658;SDS011;1339;53.304;10.406;2023-06-10T20:27:38;4.13;;;3.43;;
2658;SDS011;1339;53.304;10.406;2023-06-10T20:30:06;13.43;;;5.17;;
2658;SDS011;1339;53.304;10.406;2023-06-10T20:32:34;9.20;;;4.10;;
2658;SDS011;1339;53.304;10.406;2023-06-10T20:35:01;4.00;;;3.60;;
2658;SDS011;1339;53.304;10.406;2023-06-10T20:37:28;5.20;;;3.87;;
2658;SDS011;1339;53.304;10.406;2023-06-10T20:39:55;5.90;;;3.80;;
2658;SDS011;1339;53.304;10.406;2023-06-10T20:42:22;5.77;;;4.10;;
2658;SDS011;1339;53.304;10.406;2023-06-10T20:44:49;6.00;;;3.77;;
2658;SDS011;1339;53.304;10.406;2023-06-10T20:47:16;3.80;;;3.40;;
2658;SDS011;1339;53.304;10.406;2023-06-10T20:49:45;5.27;;;3.43;;
2658;SDS011;1339;53.304;10.406;2023-06-10T20:52:11;4.70;;;3.17;;
2658;SDS011;1339;53.304;10.406;2023-06-10T20:54:38;3.77;;;3.33;;
2658;SDS011;1339;53.304;10.406;2023-06-10T20:57:06;3.60;;;3.30;;
2658;SDS011;1339;53.304;10.406;2023-06-10T20:59:33;4.70;;;3.30;;
2658;SDS011;1339;53.304;10.406;2023-06-10T21:02:00;8.57;;;4.33;;
2658;SDS011;1339;53.304;10.406;2023-06-10T21:04:28;6.17;;;3.80;;
2658;SDS011;1339;53.304;10.406;2023-06-10T21:06:56;7.03;;;3.30;;
2658;SDS011;1339;53.304;10.406;2023-06-10T21:09:23;3.33;;;2.50;;
2658;SDS011;1339;53.304;10.406;2023-06-10T21:11:50;3.37;;;3.10;;
2658;SDS011;1339;53.304;10.406;2023-06-10T21:14:17;5.00;;;3.83;;
2658;SDS011;1339;53.304;10.406;2023-06-10T21:16:44;6.03;;;3.47;;
2658;SDS011;1339;53.304;10.406;2023-06-10T21:19:11;4.47;;;3.73;;
2658;SDS011;1339;53.304;10.406;2023-06-10T21:21:38;5.43;;;3.83;;
2658;SDS011;1339;53.304;10.406;2023-06-10T21:24:07;6.57;;;4.07;;
2658;SDS011;1339;53.304;10.406;2023-06-10T21:26:34;5.30;;;3.47;;
2658;SDS011;1339;53.304;10.406;2023-06-10T21:29:01;3.40;;;3.10;;
2658;SDS011;1339;53.304;10.406;2023-06-10T21:31:28;4.10;;;3.50;;
2658;SDS011;1339;53.304;10.406;2023-06-10T21:33:56;3.30;;;3.00;;
2658;SDS011;1339;53.304;10.406;2023-06-10T21:36:23;3.60;;;2.80;;
2658;SDS011;1339;53.304;10.406;2023-06-10T21:38:50;5.30;;;2.90;;
2658;SDS011;1339;53.304;10.406;2023-06-10T21:41:19;3.20;;;2.90;;
2658;SDS011;1339;53.304;10.406;2023-06-10T21:43:47;3.90;;;3.13;;
2658;SDS011;1339;53.304;10.406;2023-06-10T21:46:14;4.47;;;2.63;;
2658;SDS011;1339;53.304;10.406;2023-06-10T21:48:41;6.03;;;2.60;;
2658;SDS011;1339;53.304;10.406;2023-06-10T21:51:08;4.23;;;3.83;;
2658;SDS011;1339;53.304;10.406;2023-06-10T21:53:35;6.30;;;2.60;;
2658;SDS011;1339;53.304;10.406;2023-06-10T21:56:02;4.90;;;2.93;;
2658;SDS011;1339;53.304;10.406;2023-06-10T21:58:31;4.33;;;2.60;;
2658;SDS011;1339;53.304;10.406;2023-06-10T22:00:57;2.93;;;2.67;;
2658;SDS011;1339;53.304;10.406;2023-06-10T22:03:25;5.60;;;2.97;;
2658;SDS011;1339;53.304;10.406;2023-06-10T22:05:52;3.47;;;2.70;;
2658;SDS011;1339;53.304;10.406;2023-06-10T22:08:19;5.83;;;2.60;;
2658;SDS011;1339;53.304;10.406;2023-06-10T22:10:46;14.23;;;3.40;;
2658;SDS011;1339;53.304;10.406;2023-06-10T22:13:13;6.50;;;3.00;;
2658;SDS011;1339;53.304;10.406;2023-06-10T22:15:44;4.03;;;3.00;;
2658;SDS011;1339;53.304;10.406;2023-06-10T22:18:11;5.10;;;2.50;;
2658;SDS011;1339;53.304;10.406;2023-06-10T22:20:38;4.10;;;2.43;;
2658;SDS011;1339;53.304;10.406;2023-06-10T22:23:06;3.20;;;2.30;;
2658;SDS011;1339;53.304;10.406;2023-06-10T22:25:33;3.63;;;2.40;;
2658;SDS011;1339;53.304;10.406;2023-06-10T22:28:00;4.23;;;2.60;;
2658;SDS011;1339;53.304;10.406;2023-06-10T22:30:26;2.63;;;2.10;;
2658;SDS011;1339;53.304;10.406;2023-06-10T22:32:55;3.47;;;2.20;;
2658;SDS011;1339;53.304;10.406;2023-06-10T22:35:22;3.83;;;2.80;;
2658;SDS011;1339;53.304;10.406;2023-06-10T22:37:49;4.97;;;2.40;;
2658;SDS011;1339;53.304;10.406;2023-06-10T22:40:16;2.97;;;2.00;;
2658;SDS011;1339;53.304;10.406;2023-06-10T22:42:43;5.00;;;2.63;;
2658;SDS011;1339;53.304;10.406;2023-06-10T22:45:10;3.80;;;2.63;;
2658;SDS011;1339;53.304;10.406;2023-06-10T22:47:36;3.50;;;2.27;;
2658;SDS011;1339;53.304;10.406;2023-06-10T22:50:05;3.73;;;2.30;;
2658;SDS011;1339;53.304;10.406;2023-06-10T22:52:32;3.57;;;1.93;;
2658;SDS011;1339;53.304;10.406;2023-06-10T22:54:59;3.27;;;2.17;;
2658;SDS011;1339;53.304;10.406;2023-06-10T22:57:27;7.50;;;2.20;;
2658;SDS011;1339;53.304;10.406;2023-06-10T22:59:54;7.60;;;2.67;;
2658;SDS011;1339;53.304;10.406;2023-06-10T23:02:21;5.03;;;2.10;;
2658;SDS011;1339;53.304;10.406;2023-06-10T23:04:48;2.83;;;2.20;;
2658;SDS011;1339;53.304;10.406;2023-06-10T23:07:16;4.57;;;3.47;;
2658;SDS011;1339;53.304;10.406;2023-06-10T23:09:45;5.03;;;2.50;;
2658;SDS011;1339;53.304;10.406;2023-06-10T23:12:12;2.60;;;2.10;;
2658;SDS011;1339;53.304;10.406;2023-06-10T23:14:39;4.40;;;2.70;;
2658;SDS011;1339;53.304;10.406;2023-06-10T23:17:07;4.43;;;2.33;;
2658;SDS011;1339;53.304;10.406;2023-06-10T23:19:35;3.33;;;2.10;;
2658;SDS011;1339;53.304;10.406;2023-06-10T23:22:05;5.60;;;2.97;;
2658;SDS011;1339;53.304;10.406;2023-06-10T23:24:35;3.50;;;2.23;;
2658;SDS011;1339;53.304;10.406;2023-06-10T23:27:03;5.30;;;2.43;;
2658;SDS011;1339;53.304;10.406;2023-06-10T23:29:31;3.57;;;2.10;;
2658;SDS011;1339;53.304;10.406;2023-06-10T23:31:58;2.90;;;2.40;;
2658;SDS011;1339;53.304;10.406;2023-06-10T23:34:24;2.83;;;2.27;;
2658;SDS011;1339;53.304;10.406;2023-06-10T23:36:51;3.80;;;2.27;;
2658;SDS011;1339;53.304;10.406;2023-06-10T23:39:18;4.30;;;1.93;;
2658;SDS011;1339;53.304;10.406;2023-06-10T23:41:48;4.83;;;2.60;;
2658;SDS011;1339;53.304;10.406;2023-06-10T23:44:15;4.00;;;2.50;;
2658;SDS011;1339;53.304;10.406;2023-06-10T23:46:42;6.10;;;2.30;;
2658;SDS011;1339;53.304;10.406;2023-06-10T23:49:09;5.23;;;2.10;;
2658;SDS011;1339;53.304;10.406;2023-06-10T23:54:04;4.90;;;2.20;;
2658;SDS011;1339;53.304;10.406;2023-06-10T23:56:31;3.20;;;2.10;;
2658;SDS011;1339;53.304;10.406;2023-06-10T23:59:00;4.67;;;3.10;;
